Time;durP1;ratioP1;P1;durP2;ratioP2;P2;SDS_P1;SDS_P2;PMS_P1;PMS_P2;Temp;Humidity;BMP_temperature;BMP_pressure;BME280_temperature;BME280_humidity;BME280_pressure;Samples;Min_cycle;Max_cycle;Signal;HPM_P1;HPM_P2
2021/10/10 00:02:14;;;;;;;10.63;8.27;;;;;;;11.53;44.23;99012.34;8316693;28;20206;-85
2021/10/10 00:06:18;;;;;;;14.30;8.97;;;;;;;11.36;44.59;99012.00;8316499;28;20211;-86
2021/10/10 00:10:22;;;;;;;11.87;8.30;;;;;;;11.27;44.57;99007.97;8315119;28;20256;-84
2021/10/10 00:14:25;;;;;;;14.30;8.77;;;;;;;11.22;44.91;99016.78;8317316;28;20233;-84
2021/10/10 00:18:28;;;;;;;12.07;8.47;;;;;;;11.20;45.05;99009.06;8320673;28;20240;-84
2021/10/10 00:22:34;;;;;;;12.87;8.80;;;;;;;11.13;44.81;98999.75;8320841;28;20480;-84
2021/10/10 00:26:38;;;;;;;11.63;7.53;;;;;;;11.22;44.50;99012.44;8333699;28;20492;-82
2021/10/10 00:30:41;;;;;;;13.93;8.00;;;;;;;11.10;44.89;99007.63;8336093;28;20366;-82
2021/10/10 00:34:44;;;;;;;11.90;7.83;;;;;;;11.05;45.14;99006.91;8337132;28;20542;-85
2021/10/10 00:38:47;;;;;;;10.57;7.67;;;;;;;11.07;45.42;99005.13;8352926;28;20232;-83
2021/10/10 00:42:51;;;;;;;13.67;8.50;;;;;;;10.67;46.17;99001.94;8352869;28;20236;-83
2021/10/10 00:46:54;;;;;;;12.10;8.77;;;;;;;10.57;46.46;99001.34;8352801;28;20499;-83
2021/10/10 00:50:57;;;;;;;11.27;7.60;;;;;;;10.51;46.73;99001.53;8352571;28;20385;-83
2021/10/10 00:55:01;;;;;;;12.17;8.37;;;;;;;10.51;46.59;98992.94;8352381;28;20367;-83
2021/10/10 00:59:05;;;;;;;13.33;8.50;;;;;;;10.42;46.67;98991.41;8352284;28;20306;-83
2021/10/10 01:03:08;;;;;;;14.33;8.00;;;;;;;10.38;46.77;98997.59;8330320;28;20209;-83
2021/10/10 01:07:11;;;;;;;11.47;8.60;;;;;;;10.40;46.71;98994.97;8319216;28;20209;-83
2021/10/10 01:11:14;;;;;;;10.87;8.17;;;;;;;10.31;47.20;98998.63;8318956;28;20311;-82
2021/10/10 01:15:19;;;;;;;14.47;8.57;;;;;;;10.25;47.01;98994.44;8319075;28;20232;-82
2021/10/10 01:19:21;;;;;;;11.40;8.27;;;;;;;10.62;46.35;98993.44;8318788;28;20229;-83
2021/10/10 01:23:26;;;;;;;13.23;8.20;;;;;;;10.53;46.26;98989.38;8318890;28;20208;-82
2021/10/10 01:27:29;;;;;;;17.00;8.47;;;;;;;10.50;46.15;98976.50;8318357;28;20224;-83
2021/10/10 01:31:32;;;;;;;11.17;8.10;;;;;;;10.50;45.92;98984.28;8318584;28;20224;-82
2021/10/10 01:35:35;;;;;;;10.47;7.93;;;;;;;10.53;45.79;98973.84;8318427;28;20231;-82
2021/10/10 01:39:40;;;;;;;10.43;7.87;;;;;;;10.50;45.68;98971.34;8318094;28;20233;-82
2021/10/10 01:43:43;;;;;;;12.20;8.13;;;;;;;10.34;46.08;98977.84;8318311;28;20201;-83
2021/10/10 01:47:45;;;;;;;12.33;7.83;;;;;;;10.22;46.09;98968.63;8317957;28;20205;-83
2021/10/10 01:51:48;;;;;;;11.63;8.13;;;;;;;10.27;46.04;98977.13;8318050;28;20219;-82
2021/10/10 01:55:53;;;;;;;13.50;8.00;;;;;;;10.24;45.96;98976.34;8317611;28;20205;-82
2021/10/10 01:59:56;;;;;;;16.00;8.30;;;;;;;10.28;45.59;98965.00;8318036;28;20212;-86
2021/10/10 02:03:59;;;;;;;10.63;8.10;;;;;;;10.23;45.75;98962.56;8317439;28;20201;-84
2021/10/10 02:08:01;;;;;;;12.33;7.90;;;;;;;10.19;45.65;98958.38;8317579;28;20395;-84
2021/10/10 02:12:06;;;;;;;13.70;7.90;;;;;;;10.19;45.95;98955.78;8317064;28;20241;-84
2021/10/10 02:16:09;;;;;;;10.30;7.43;;;;;;;10.16;46.44;98955.84;8317195;28;20513;-84
2021/10/10 02:20:12;;;;;;;11.17;8.37;;;;;;;10.13;46.26;98956.78;8317157;28;20201;-84
2021/10/10 02:24:15;;;;;;;12.23;8.23;;;;;;;10.17;46.47;98954.97;8321432;28;20200;-84
2021/10/10 02:28:19;;;;;;;10.60;7.93;;;;;;;10.11;46.42;98957.69;8316914;28;20212;-84
2021/10/10 02:32:23;;;;;;;11.37;8.07;;;;;;;10.16;46.08;98958.44;8316865;28;20280;-84
2021/10/10 02:36:25;;;;;;;11.57;7.73;;;;;;;10.04;46.26;98956.19;8316064;28;20237;-84
2021/10/10 02:40:28;;;;;;;8.90;7.30;;;;;;;9.92;46.34;98957.34;8316910;28;20207;-84
2021/10/10 02:44:33;;;;;;;11.23;7.87;;;;;;;9.93;45.90;98952.13;8318020;28;20201;-84
2021/10/10 02:48:36;;;;;;;11.33;7.70;;;;;;;9.88;46.15;98958.31;8316489;28;20519;-84
2021/10/10 02:52:39;;;;;;;9.40;7.53;;;;;;;9.70;46.63;98959.63;8316339;28;20398;-84
2021/10/10 02:56:42;;;;;;;9.47;7.47;;;;;;;9.81;46.42;98957.63;8316721;28;20229;-86
2021/10/10 03:00:46;;;;;;;11.37;7.97;;;;;;;9.78;46.56;98952.50;8316268;28;20200;-84
2021/10/10 03:04:49;;;;;;;13.33;7.80;;;;;;;9.66;46.77;98945.06;8315899;28;20205;-85
2021/10/10 03:08:52;;;;;;;10.77;7.63;;;;;;;9.75;46.60;98947.44;8316433;28;20504;-84
2021/10/10 03:12:55;;;;;;;10.83;7.53;;;;;;;9.70;46.71;98944.09;8317419;28;20328;-85
2021/10/10 03:16:59;;;;;;;12.10;7.70;;;;;;;9.50;47.03;98947.16;8318249;28;20556;-85
2021/10/10 03:21:02;;;;;;;9.90;7.57;;;;;;;9.54;47.20;98936.75;8320198;28;20275;-85
2021/10/10 03:25:06;;;;;;;10.63;8.20;;;;;;;9.53;46.75;98940.19;8315514;28;20397;-85
2021/10/10 03:29:08;;;;;;;10.30;7.40;;;;;;;9.57;46.76;98941.81;8315605;28;20346;-83
2021/10/10 03:33:13;;;;;;;10.17;7.37;;;;;;;9.50;46.63;98935.13;8315610;28;20201;-84
2021/10/10 03:37:16;;;;;;;12.27;8.17;;;;;;;9.59;46.47;98944.38;8315387;28;20232;-84
2021/10/10 03:41:19;;;;;;;11.07;7.83;;;;;;;9.43;46.91;98941.31;8315574;28;20201;-84
2021/10/10 03:45:21;;;;;;;10.20;7.10;;;;;;;9.36;47.05;98944.94;8315691;28;20209;-85
2021/10/10 03:49:26;;;;;;;15.73;7.87;;;;;;;9.34;46.87;98942.38;8319517;28;20212;-85
2021/10/10 03:53:38;;;;;;;11.33;8.10;;;;;;;9.36;46.82;98943.19;8321288;28;20527;-84
2021/10/10 03:57:40;;;;;;;11.43;7.53;;;;;;;9.38;46.65;98932.81;8322421;28;20256;-83
2021/10/10 04:01:44;;;;;;;10.17;7.40;;;;;;;9.30;46.80;98932.16;8322985;28;20208;-85
2021/10/10 04:05:48;;;;;;;9.13;7.53;;;;;;;9.30;47.34;98932.16;8320973;28;20210;-85
2021/10/10 04:09:52;;;;;;;15.37;7.50;;;;;;;9.13;47.03;98929.97;8321106;28;20216;-85
2021/10/10 04:13:55;;;;;;;9.07;7.77;;;;;;;9.12;46.70;98941.16;8320804;28;20236;-85
2021/10/10 04:17:57;;;;;;;11.73;7.97;;;;;;;9.24;46.77;98940.06;8320988;28;20558;-84
2021/10/10 04:22:02;;;;;;;10.70;8.40;;;;;;;9.18;46.72;98941.91;8320674;28;20201;-84
2021/10/10 04:26:05;;;;;;;8.10;7.13;;;;;;;9.03;46.86;98941.41;8320618;28;20221;-84
2021/10/10 04:30:11;;;;;;;9.73;7.40;;;;;;;9.01;46.96;98936.25;8320660;28;20228;-84
2021/10/10 04:34:14;;;;;;;9.10;6.97;;;;;;;8.96;46.90;98940.69;8320575;28;20201;-84
2021/10/10 04:38:19;;;;;;;11.07;7.27;;;;;;;8.94;46.82;98926.94;8320429;28;20229;-84
2021/10/10 04:42:22;;;;;;;13.07;7.30;;;;;;;8.89;46.69;98933.94;8319814;28;20201;-83
2021/10/10 04:46:24;;;;;;;11.23;7.77;;;;;;;8.90;46.69;98938.25;8320177;28;20485;-84
2021/10/10 04:50:27;;;;;;;9.87;7.60;;;;;;;8.92;46.59;98942.47;8319881;28;20398;-84
2021/10/10 04:54:33;;;;;;;15.57;7.33;;;;;;;8.87;46.55;98940.88;8319836;28;20201;-84
2021/10/10 04:58:36;;;;;;;11.70;7.23;;;;;;;8.91;46.80;98943.38;8319484;28;20442;-84
2021/10/10 05:02:38;;;;;;;13.03;8.10;;;;;;;8.83;47.05;98942.66;8318850;28;20201;-84
2021/10/10 05:06:42;;;;;;;10.03;7.70;;;;;;;8.81;47.25;98939.28;8319667;28;20264;-84
2021/10/10 05:10:48;;;;;;;11.07;8.20;;;;;;;8.76;46.86;98936.81;8319362;28;20473;-85
2021/10/10 05:14:50;;;;;;;10.17;8.40;;;;;;;8.67;46.72;98933.56;8318742;28;20239;-85
2021/10/10 05:18:53;;;;;;;11.60;8.23;;;;;;;8.71;46.75;98935.19;8318878;28;20229;-85
2021/10/10 05:22:56;;;;;;;14.37;9.00;;;;;;;8.56;46.82;98932.03;8319011;28;20201;-83
2021/10/10 05:27:01;;;;;;;14.37;10.33;;;;;;;8.60;46.67;98938.88;8318650;28;20201;-84
2021/10/10 05:31:04;;;;;;;22.23;13.40;;;;;;;8.63;46.91;98932.78;8318641;28;20213;-84
2021/10/10 05:35:07;;;;;;;17.23;12.97;;;;;;;8.60;46.77;98933.72;8318551;28;20205;-83
2021/10/10 05:39:10;;;;;;;12.90;9.47;;;;;;;8.56;47.14;98931.19;8318375;28;20267;-84
2021/10/10 05:43:14;;;;;;;12.00;8.80;;;;;;;8.55;47.12;98932.09;8320075;28;20231;-85
2021/10/10 05:47:19;;;;;;;11.70;8.67;;;;;;;8.56;47.03;98932.03;8318394;28;20200;-85
2021/10/10 05:51:22;;;;;;;11.37;9.07;;;;;;;8.60;47.18;98931.13;8318206;28;20235;-86
2021/10/10 05:55:25;;;;;;;14.30;9.10;;;;;;;8.63;47.05;98937.94;8318159;28;20201;-85
2021/10/10 05:59:32;;;;;;;11.43;8.37;;;;;;;8.72;46.86;98937.75;8317850;28;20236;-86
2021/10/10 06:03:37;;;;;;;11.80;8.87;;;;;;;8.79;47.01;98939.31;8317734;28;20205;-86
2021/10/10 06:07:40;;;;;;;10.73;8.53;;;;;;;9.08;46.73;98937.84;8317727;28;20277;-86
2021/10/10 06:11:43;;;;;;;12.23;8.20;;;;;;;9.20;46.53;98932.38;8316798;28;20221;-85
2021/10/10 06:15:50;;;;;;;11.97;8.87;;;;;;;9.21;46.49;98946.13;8317596;28;20223;-86
2021/10/10 06:19:53;;;;;;;10.90;8.77;;;;;;;9.41;46.44;98939.66;8316998;28;20232;-86
2021/10/10 06:23:56;;;;;;;12.93;9.40;;;;;;;9.53;45.90;98945.38;8317006;28;20201;-86
2021/10/10 06:27:59;;;;;;;13.90;9.57;;;;;;;9.60;46.19;98946.06;8317176;28;20215;-86
2021/10/10 06:32:03;;;;;;;11.80;9.23;;;;;;;9.78;45.83;98950.78;8317153;28;20201;-85
2021/10/10 06:36:06;;;;;;;11.07;8.50;;;;;;;9.86;45.87;98953.19;8316786;28;20272;-86
2021/10/10 06:40:10;;;;;;;10.50;7.57;;;;;;;10.56;52.82;98959.94;8327899;28;20220;-86
2021/10/10 06:44:13;;;;;;;12.30;8.33;;;;;;;10.23;45.72;98957.38;8325864;28;20384;-85
2021/10/10 06:48:17;;;;;;;9.60;8.30;;;;;;;10.26;46.52;98959.91;8327474;28;20216;-86
2021/10/10 06:52:20;;;;;;;10.00;7.87;;;;;;;10.32;45.97;98966.69;8331047;28;20211;-87
2021/10/10 06:56:27;;;;;;;38.03;9.63;;;;;;;10.55;46.10;98958.28;8329692;28;20554;-86
2021/10/10 07:00:30;;;;;;;16.13;8.50;;;;;;;10.83;62.18;98967.81;8329120;28;20212;-83
2021/10/10 07:04:35;;;;;;;28.80;19.50;;;;;;;10.65;45.85;98964.88;8329300;28;20192;-88
2021/10/10 07:08:37;;;;;;;17.57;13.33;;;;;;;10.66;45.68;98964.00;8332108;28;20199;-85
2021/10/10 07:12:40;;;;;;;13.00;8.47;;;;;;;10.89;45.57;98962.44;8328639;28;20254;-84
2021/10/10 07:16:43;;;;;;;9.93;8.00;;;;;;;11.03;45.04;98973.25;8319008;28;20217;-85
2021/10/10 07:21:00;;;;;;;9.63;7.83;;;;;;;11.37;44.90;98976.59;8298901;28;20290;-85
2021/10/10 07:25:07;;;;;;;16.33;8.83;;;;;;;11.46;44.35;98966.75;8304048;28;20193;-85
2021/10/10 07:29:10;;;;;;;9.90;8.00;;;;;;;11.70;43.98;98969.44;8326967;28;20274;-85
2021/10/10 07:33:13;;;;;;;15.57;8.60;;;;;;;11.94;43.65;98967.81;8333853;28;20204;-84
2021/10/10 07:37:17;;;;;;;12.63;8.60;;;;;;;12.15;43.67;98968.81;8334868;28;20192;-85
2021/10/10 07:41:20;;;;;;;14.97;8.37;;;;;;;12.58;41.93;98974.22;8335591;28;20228;-85
2021/10/10 07:45:25;;;;;;;12.20;7.97;;;;;;;13.08;40.86;98974.94;8338174;28;20201;-85
2021/10/10 07:49:27;;;;;;;16.40;8.60;;;;;;;13.10;40.53;98975.72;8336608;28;20201;-88
2021/10/10 07:53:32;;;;;;;14.70;8.50;;;;;;;13.75;40.32;98980.16;8342544;28;20204;-85
2021/10/10 07:57:35;;;;;;;12.57;8.87;;;;;;;14.31;39.50;98976.06;8335741;28;20193;-89
2021/10/10 08:01:37;;;;;;;12.93;8.60;;;;;;;14.42;38.09;98968.63;8321791;28;20412;-91
2021/10/10 08:05:42;;;;;;;13.93;8.83;;;;;;;14.72;37.61;98979.47;8326487;28;20242;-89
2021/10/10 08:09:46;;;;;;;15.27;9.20;;;;;;;14.99;36.58;98977.38;8353750;28;20215;-87
2021/10/10 08:13:49;;;;;;;16.67;9.60;;;;;;;15.11;35.06;98969.88;8353321;28;20262;-86
2021/10/10 08:17:52;;;;;;;11.20;8.60;;;;;;;15.52;34.70;98969.69;8353718;28;20207;-84
2021/10/10 08:21:55;;;;;;;13.03;9.17;;;;;;;15.91;34.52;98971.28;8353492;28;20535;-82
2021/10/10 08:25:59;;;;;;;14.10;8.67;;;;;;;16.03;33.84;98965.44;8353257;28;20220;-82
2021/10/10 08:30:03;;;;;;;13.63;9.33;;;;;;;15.62;33.24;98966.53;8353472;28;20211;-86
2021/10/10 08:34:06;;;;;;;13.80;9.73;;;;;;;16.20;32.75;98968.03;8353767;28;20201;-84
2021/10/10 08:38:22;;;;;;;12.60;9.10;;;;;;;16.46;32.41;98965.00;8344073;28;20560;-84
2021/10/10 08:42:31;;;;;;;15.77;9.63;;;;;;;16.92;31.32;98962.53;8335709;28;20268;-85
2021/10/10 08:46:38;;;;;;;14.90;9.03;;;;;;;17.37;31.52;98964.38;8335829;28;20200;-84
2021/10/10 08:50:42;;;;;;;12.37;9.20;;;;;;;17.65;30.51;98959.34;8320779;28;20205;-88
2021/10/10 08:54:45;;;;;;;13.73;9.60;;;;;;;17.79;30.86;98957.63;8320200;28;20207;-88
2021/10/10 08:58:50;;;;;;;14.33;8.83;;;;;;;18.36;29.44;98956.91;8323962;28;20544;-90
2021/10/10 09:02:53;;;;;;;14.03;8.73;;;;;;;18.76;29.90;98958.88;8326109;28;20212;-86
2021/10/10 09:06:58;;;;;;;12.50;9.10;;;;;;;18.78;28.52;98950.91;8322095;28;20208;-85
2021/10/10 09:11:01;;;;;;;16.97;9.40;;;;;;;18.45;28.86;98955.53;8321445;28;20221;-86
2021/10/10 09:15:10;;;;;;;13.90;8.90;;;;;;;19.23;28.94;98948.94;8320272;28;20229;-91
2021/10/10 09:19:30;;;;;;;11.83;8.80;;;;;;;18.48;28.73;98950.06;8321048;28;20236;-92
2021/10/10 09:23:33;;;;;;;14.97;8.80;;;;;;;19.09;28.12;98949.84;8320774;28;20205;-91
2021/10/10 09:27:36;;;;;;;14.67;9.03;;;;;;;19.51;27.98;98945.38;8320929;28;20209;-91
2021/10/10 09:31:40;;;;;;;12.70;9.00;;;;;;;19.80;28.07;98942.63;8320386;28;20201;-90
2021/10/10 09:35:44;;;;;;;14.07;8.43;;;;;;;20.07;27.94;98948.69;8319766;28;20248;-92
2021/10/10 09:39:53;;;;;;;12.80;8.77;;;;;;;20.03;26.42;98944.56;8319525;28;20225;-89
2021/10/10 09:44:02;;;;;;;14.20;9.23;;;;;;;20.36;27.51;98948.47;8324833;28;20209;-89
2021/10/10 09:48:07;;;;;;;12.83;9.17;;;;;;;20.69;27.56;98947.94;8334200;28;20196;-90
2021/10/10 09:52:13;;;;;;;15.27;9.30;;;;;;;20.73;27.35;98943.28;8341990;28;20197;-88
2021/10/10 09:56:17;;;;;;;14.80;9.37;;;;;;;20.75;26.28;98941.38;8333936;28;20204;-90
2021/10/10 10:00:21;;;;;;;13.93;8.63;;;;;;;20.88;26.50;98944.00;8340792;28;20220;-89
2021/10/10 10:04:26;;;;;;;16.93;9.00;;;;;;;20.85;25.92;98944.22;8350474;28;20238;-89
2021/10/10 10:08:29;;;;;;;13.10;9.10;;;;;;;20.93;25.68;98933.16;8351155;28;20354;-87
2021/10/10 10:12:32;;;;;;;13.83;8.53;;;;;;;20.96;25.63;98931.13;8350256;28;20433;-89
2021/10/10 10:16:39;;;;;;;13.30;8.83;;;;;;;20.83;25.27;98931.16;8350751;28;20210;-87
2021/10/10 10:20:44;;;;;;;12.73;8.73;;;;;;;21.19;25.49;98931.25;8351064;28;20558;-89
2021/10/10 10:24:47;;;;;;;13.07;8.73;;;;;;;20.96;25.47;98930.28;8351784;28;20202;-94
2021/10/10 10:28:51;;;;;;;11.80;8.80;;;;;;;20.76;25.07;98924.66;8352266;28;20205;-89
2021/10/10 10:32:54;;;;;;;13.87;8.83;;;;;;;21.26;26.06;98933.31;8353316;28;20383;-89
2021/10/10 10:37:01;;;;;;;11.37;8.00;;;;;;;21.01;24.15;98928.16;8356783;28;20212;-84
2021/10/10 10:41:04;;;;;;;17.40;8.60;;;;;;;20.72;24.42;98928.47;8349913;28;20241;-85
2021/10/10 10:45:23;;;;;;;13.57;8.77;;;;;;;20.40;24.31;98928.88;8349882;28;20269;-86
2021/10/10 10:49:55;;;;;;;13.80;8.63;;;;;;;20.60;24.71;98932.81;8347780;28;20520;-91
2021/10/10 10:54:40;;;;;;;13.57;8.43;;;;;;;20.68;23.80;98932.25;8348817;28;20395;-91
2021/10/10 10:58:46;;;;;;;11.43;7.70;;;;;;;19.95;23.96;98925.00;8303740;28;20208;-90
2021/10/10 11:03:08;;;;;;;14.37;7.67;;;;;;;20.36;24.47;98923.97;8331372;28;20222;-89
2021/10/10 11:07:11;;;;;;;9.60;7.47;;;;;;;20.31;25.34;98919.88;8321000;28;20495;-88
2021/10/10 11:11:19;;;;;;;12.53;7.23;;;;;;;20.54;24.05;98916.56;8350277;28;20220;-88
2021/10/10 11:15:23;;;;;;;11.00;7.33;;;;;;;20.31;24.08;98911.97;8352063;28;20236;-92
2021/10/10 11:19:29;;;;;;;16.90;8.20;;;;;;;20.23;24.99;98898.50;8350145;28;20205;-89
2021/10/10 11:23:33;;;;;;;12.30;7.37;;;;;;;20.28;25.64;98900.81;8350667;28;20229;-89
2021/10/10 11:27:36;;;;;;;8.97;7.07;;;;;;;20.50;25.04;98900.16;8341494;28;20197;-87
2021/10/10 11:31:42;;;;;;;11.50;7.00;;;;;;;20.34;24.50;98897.75;8332893;28;20197;-89
2021/10/10 11:35:45;;;;;;;10.90;6.53;;;;;;;20.16;23.48;98888.50;8331007;28;20198;-88
2021/10/10 11:39:48;;;;;;;11.20;6.40;;;;;;;20.31;25.57;98887.44;8331640;28;20235;-84
2021/10/10 11:44:02;;;;;;;8.97;6.53;;;;;;;20.26;25.22;98886.94;8332690;28;20395;-83
2021/10/10 11:48:09;;;;;;;9.97;6.23;;;;;;;20.19;25.54;98878.63;8331224;28;20193;-83
2021/10/10 11:52:21;;;;;;;10.43;7.63;;;;;;;19.65;24.09;98870.91;8332111;28;20211;-84
2021/10/10 11:56:24;;;;;;;13.60;6.93;;;;;;;19.97;28.63;98871.41;8340658;28;20212;-82
2021/10/10 12:00:28;;;;;;;13.90;6.87;;;;;;;20.16;27.31;98868.31;8348932;28;20334;-81
2021/10/10 12:04:33;;;;;;;10.80;6.57;;;;;;;20.14;27.87;98869.38;8283530;28;20230;-82
2021/10/10 12:08:35;;;;;;;10.30;6.17;;;;;;;20.60;26.90;98861.75;8284850;28;20209;-81
2021/10/10 12:12:39;;;;;;;11.47;6.97;;;;;;;19.75;24.53;98847.53;8297854;28;20242;-82
2021/10/10 12:16:42;;;;;;;13.53;7.00;;;;;;;19.89;25.56;98850.84;8321985;28;20201;-81
2021/10/10 12:20:50;;;;;;;11.60;7.60;;;;;;;19.61;25.45;98849.25;8321737;28;20233;-81
2021/10/10 12:24:53;;;;;;;13.13;6.87;;;;;;;20.18;26.51;98857.69;8321877;28;20271;-81
2021/10/10 12:28:56;;;;;;;10.97;6.20;;;;;;;20.56;26.73;98851.50;8321482;28;20197;-81
2021/10/10 12:33:00;;;;;;;11.00;6.30;;;;;;;20.96;26.85;98840.75;8342174;28;20426;-82
2021/10/10 12:37:04;;;;;;;11.35;6.78;;;;;;;21.18;24.53;98842.66;8342910;28;20422;-84
2021/10/10 12:41:25;;;;;;;11.07;6.57;;;;;;;20.61;24.05;98842.38;8331413;28;20225;-82
2021/10/10 12:45:31;;;;;;;9.63;6.90;;;;;;;20.48;24.05;98842.38;8321255;28;20274;-82
2021/10/10 12:49:36;;;;;;;10.70;7.05;;;;;;;20.88;23.98;98836.88;8318329;28;20516;-83
2021/10/10 12:53:40;;;;;;;9.63;6.63;;;;;;;20.59;24.27;98832.88;8320427;28;20205;-84
2021/10/10 12:57:51;;;;;;;11.80;7.03;;;;;;;20.83;24.79;98828.50;8321024;28;20202;-85
2021/10/10 13:01:54;;;;;;;9.27;6.57;;;;;;;20.37;23.07;98823.03;8320498;28;20229;-84
2021/10/10 13:05:57;;;;;;;9.37;5.97;;;;;;;20.70;24.28;98831.19;8320225;28;20489;-82
2021/10/10 13:10:01;;;;;;;14.53;6.20;;;;;;;20.87;24.27;98819.44;8320101;28;20202;-82
2021/10/10 13:14:06;;;;;;;17.40;6.60;;;;;;;21.19;25.23;98821.50;8319942;28;20261;-85
2021/10/10 13:18:09;;;;;;;14.10;6.17;;;;;;;21.28;24.07;98823.44;8319784;28;20201;-82
2021/10/10 13:22:11;;;;;;;8.63;5.70;;;;;;;21.34;24.24;98827.38;8318852;28;20239;-83
2021/10/10 13:26:16;;;;;;;8.40;5.90;;;;;;;21.49;24.57;98814.88;8319785;28;20202;-83
2021/10/10 13:30:19;;;;;;;12.30;5.90;;;;;;;21.68;24.41;98811.69;8319544;28;20511;-83
2021/10/10 13:34:23;;;;;;;8.73;5.60;;;;;;;21.65;25.00;98802.22;8319434;28;20208;-83
2021/10/10 13:38:26;;;;;;;11.60;5.40;;;;;;;21.29;23.69;98797.94;8319345;28;20203;-84
2021/10/10 13:42:30;;;;;;;10.43;5.57;;;;;;;21.41;24.01;98799.63;8319042;28;20254;-84
2021/10/10 13:46:35;;;;;;;11.90;5.73;;;;;;;21.27;22.87;98805.09;8318972;28;20212;-83
2021/10/10 13:50:38;;;;;;;8.73;5.60;;;;;;;20.94;23.04;98795.28;8318974;28;20214;-83
2021/10/10 13:54:45;;;;;;;8.93;5.60;;;;;;;21.22;24.07;98788.81;8318871;28;20382;-82
2021/10/10 13:58:49;;;;;;;8.23;6.03;;;;;;;21.09;23.25;98796.78;8318721;28;20208;-83
2021/10/10 14:02:52;;;;;;;9.97;5.90;;;;;;;21.21;23.16;98793.25;8318173;28;20232;-83
2021/10/10 14:06:55;;;;;;;12.87;6.00;;;;;;;20.86;22.58;98785.31;8318481;28;20225;-84
2021/10/10 14:10:58;;;;;;;9.90;5.57;;;;;;;21.06;23.87;98776.78;8318274;28;20288;-84
2021/10/10 14:15:02;;;;;;;16.23;5.27;;;;;;;21.02;23.70;98772.69;8318201;28;20251;-84
2021/10/10 14:19:05;;;;;;;16.87;5.43;;;;;;;20.69;22.68;98784.78;8318150;28;20202;-84
2021/10/10 14:23:10;;;;;;;10.67;5.40;;;;;;;20.98;22.39;98789.69;8317638;28;20251;-83
2021/10/10 14:27:13;;;;;;;8.43;4.87;;;;;;;21.18;24.11;98790.00;8320429;28;20473;-84
2021/10/10 14:31:17;;;;;;;10.33;5.20;;;;;;;21.14;24.00;98785.91;8317474;28;20238;-83
2021/10/10 14:35:21;;;;;;;8.93;5.60;;;;;;;21.01;23.90;98792.06;8317151;28;20208;-84
2021/10/10 14:39:24;;;;;;;8.70;4.93;;;;;;;21.19;23.68;98794.28;8317529;28;20201;-83
2021/10/10 14:43:30;;;;;;;18.70;5.83;;;;;;;21.05;23.95;98795.31;8317388;28;20230;-87
2021/10/10 14:48:00;;;;;;;13.20;5.47;;;;;;;21.03;24.00;98794.59;8317138;28;20198;-84
2021/10/10 14:52:03;;;;;;;12.20;5.43;;;;;;;20.93;23.46;98789.19;8317459;28;20245;-84
2021/10/10 14:56:06;;;;;;;9.63;5.40;;;;;;;20.94;25.24;98790.84;8317187;28;20210;-82
2021/10/10 15:00:10;;;;;;;8.43;6.10;;;;;;;20.88;25.65;98792.13;8317052;28;20201;-82
2021/10/10 15:04:15;;;;;;;17.20;14.47;;;;;;;20.75;26.65;98791.34;8316622;28;20236;-83
2021/10/10 15:08:34;;;;;;;20.23;18.13;;;;;;;20.64;25.95;98793.97;8317025;28;20206;-82
2021/10/10 15:12:38;;;;;;;25.90;23.40;;;;;;;20.48;27.55;98804.69;8316570;28;20238;-83
2021/10/10 15:16:41;;;;;;;18.97;16.77;;;;;;;20.32;27.34;98797.06;8316897;28;20386;-83
2021/10/10 15:20:47;;;;;;;20.07;15.27;;;;;;;20.15;27.95;98792.19;8316744;28;20209;-83
2021/10/10 15:24:50;;;;;;;21.33;14.40;;;;;;;19.93;27.83;98798.91;8316864;28;20517;-89
2021/10/10 15:28:53;;;;;;;8.60;6.23;;;;;;;19.31;25.20;98797.00;8317272;28;20395;-88
2021/10/10 15:32:56;;;;;;;287.90;224.70;;;;;;;18.91;26.10;98794.41;8316619;28;20208;-86
2021/10/10 15:37:01;;;;;;;83.60;62.47;;;;;;;18.71;26.72;98787.78;8334010;28;20201;-92
2021/10/10 15:41:03;;;;;;;39.23;29.60;;;;;;;18.56;27.30;98792.22;8332863;28;20211;-87
2021/10/10 15:45:08;;;;;;;22.07;7.73;;;;;;;18.49;27.99;98781.28;8325809;28;20205;-88
2021/10/10 15:49:11;;;;;;;20.20;7.27;;;;;;;18.34;28.90;98779.66;8325861;28;20212;-87
2021/10/10 15:53:15;;;;;;;21.37;9.17;;;;;;;18.28;29.29;98777.41;8322742;28;20212;-91
2021/10/10 15:57:18;;;;;;;28.33;18.70;;;;;;;18.35;33.00;98791.81;8322365;28;20212;-82
2021/10/10 16:01:21;;;;;;;35.30;20.87;;;;;;;18.16;30.10;98784.25;8322368;28;20229;-90
2021/10/10 16:05:24;;;;;;;41.07;21.37;;;;;;;18.01;30.87;98787.81;8322635;28;20403;-90
2021/10/10 16:09:29;;;;;;;49.40;37.90;;;;;;;18.07;32.46;98790.09;8322043;28;20212;-84
2021/10/10 16:13:31;;;;;;;38.85;16.85;;;;;;;18.10;31.40;98782.00;8321703;28;20437;-88
2021/10/10 16:17:36;;;;;;;14.50;9.60;;;;;;;18.10;32.22;98790.72;8322963;28;20406;-91
2021/10/10 16:21:39;;;;;;;11.17;6.27;;;;;;;17.83;32.94;98774.88;8322535;28;20385;-92
2021/10/10 16:25:43;;;;;;;62.53;11.23;;;;;;;17.72;32.67;98783.41;8322483;28;20201;-91
2021/10/10 16:29:46;;;;;;;16.07;12.50;;;;;;;17.61;33.51;98787.59;8322518;28;20485;-92
2021/10/10 16:33:51;;;;;;;12.57;9.87;;;;;;;17.38;33.91;98780.19;8322470;28;20205;-93
2021/10/10 16:37:58;;;;;;;13.43;7.63;;;;;;;17.08;34.74;98777.59;8322407;28;20362;-91
2021/10/10 16:42:08;;;;;;;14.47;10.37;;;;;;;16.94;35.13;98786.22;8322347;28;20229;-88
2021/10/10 16:46:11;;;;;;;31.93;22.13;;;;;;;16.78;35.50;98791.47;8321655;28;20208;-88
2021/10/10 16:50:15;;;;;;;56.77;26.60;;;;;;;16.60;36.60;98801.22;8321372;28;20213;-91
2021/10/10 16:54:18;;;;;;;45.10;24.70;;;;;;;16.50;36.37;98800.00;8321129;28;20209;-87
2021/10/10 16:58:22;;;;;;;44.73;24.30;;;;;;;16.32;36.76;98799.28;8345524;28;20203;-87
2021/10/10 17:02:25;;;;;;;59.57;22.83;;;;;;;16.18;37.35;98797.41;8334774;28;20236;-88
2021/10/10 17:06:28;;;;;;;30.23;18.63;;;;;;;15.99;37.57;98802.78;8321568;28;20243;-86
2021/10/10 17:10:31;;;;;;;22.57;14.73;;;;;;;15.82;37.83;98794.97;8321402;28;20225;-86
2021/10/10 17:14:36;;;;;;;32.73;17.03;;;;;;;15.77;37.57;98797.00;8320377;28;20532;-87
2021/10/10 17:18:39;;;;;;;28.77;18.10;;;;;;;15.52;38.67;98805.22;8319853;28;20201;-88
2021/10/10 17:22:42;;;;;;;28.63;21.27;;;;;;;15.53;38.27;98809.50;8325465;28;20220;-88
2021/10/10 17:26:48;;;;;;;35.77;19.30;;;;;;;15.38;38.84;98804.16;8333511;28;20196;-90
2021/10/10 17:30:52;;;;;;;22.93;13.63;;;;;;;15.17;39.50;98803.47;8330897;28;20197;-93
2021/10/10 17:34:55;;;;;;;13.30;8.70;;;;;;;15.09;39.24;98813.44;8320208;28;20205;-89
2021/10/10 17:39:04;;;;;;;7.47;5.70;;;;;;;15.00;39.06;98816.50;8319622;28;20201;-89
2021/10/10 17:43:06;;;;;;;8.80;5.93;;;;;;;14.83;39.86;98828.59;8334053;28;20266;-85
2021/10/10 17:47:12;;;;;;;16.97;7.00;;;;;;;14.74;40.02;98834.25;8333937;28;20192;-86
2021/10/10 17:51:15;;;;;;;9.43;6.03;;;;;;;14.58;40.10;98833.28;8331263;28;20252;-87
2021/10/10 17:55:18;;;;;;;13.53;6.97;;;;;;;14.51;40.47;98829.22;8345869;28;20204;-94
2021/10/10 17:59:24;;;;;;;10.67;7.90;;;;;;;14.34;40.97;98828.25;8348824;28;20208;-95
2021/10/10 18:03:57;;;;;;;12.67;9.40;;;;;;;14.23;41.13;98836.56;8324468;28;20232;-95
2021/10/10 18:12:21;;;;;;;17.80;12.30;;;;;;;14.56;40.39;98853.31;8321398;28;20437;-95
2021/10/10 18:16:24;;;;;;;13.30;10.17;;;;;;;14.14;41.31;98849.16;8320572;28;20349;-95
2021/10/10 18:20:32;;;;;;;13.63;10.30;;;;;;;13.94;41.57;98842.25;8322508;28;20212;-95
2021/10/10 18:24:35;;;;;;;14.93;9.70;;;;;;;13.94;41.49;98848.28;8348099;28;20488;-90
2021/10/10 18:28:38;;;;;;;13.83;9.43;;;;;;;13.88;41.42;98840.75;8352386;28;20236;-90
2021/10/10 18:32:45;;;;;;;15.73;9.40;;;;;;;13.79;41.48;98849.81;8353259;28;20200;-92
2021/10/10 18:36:51;;;;;;;13.27;9.20;;;;;;;13.72;41.58;98848.38;8352993;28;20216;-89
2021/10/10 18:40:54;;;;;;;14.93;9.33;;;;;;;13.65;41.72;98846.94;8352785;28;20205;-92
2021/10/10 18:44:57;;;;;;;12.27;8.73;;;;;;;13.60;41.88;98834.13;8355519;28;20535;-95
2021/10/10 18:48:59;;;;;;;11.87;9.50;;;;;;;13.53;41.68;98840.50;8355620;28;20219;-95
2021/10/10 18:53:04;;;;;;;14.60;9.73;;;;;;;13.47;41.99;98835.56;8337833;28;20203;-95
2021/10/10 18:57:08;;;;;;;16.53;9.30;;;;;;;13.42;41.85;98834.91;8334080;28;20220;-91
2021/10/10 19:01:10;;;;;;;15.67;10.60;;;;;;;13.34;42.22;98835.22;8334617;28;20534;-91
2021/10/10 19:05:14;;;;;;;14.73;10.53;;;;;;;13.35;42.22;98839.53;8331330;28;20228;-94